KMRJ

Iowa County Airport

Mineral Point, Wisconsin, USA
METAR KMRJ 220955Z AUTO 00000KT 2SM BR BKN003 OVC009 14/14 A3000 RMK AO2 P0001
Observed Flight Rules
May-22 @ 09:55 UTC (19 minutes ago) Instrument Flight Rules
Visibility Clouds Conditions
2 miles
  • Broken at 300' AGL
  • Overcast at 900' AGL
  • Mist
Temperatures Readings Precipitation
Current 14°C / 57°F
Dewpoint 14°C / 57°F
Humidity 100%
Altimeter 30" Hg
Pressure 1016 hPa
Elevation 359
Current Rain 0.01
METAR KMRJ 220955Z AUTO 00000KT 2SM BR BKN003 OVC009 14/14 A3000 RMK AO2 P0001
Observed Flight Rules
May-22 @ 09:55 UTC
(19 minutes ago)
LIFR
Clouds
  • Broken at 300' AGL
  • Overcast at 900' AGL
Conditions
  • Mist
Temperature Dewpoint
14°C / 57°F 14°C / 57°F
Humidity Altimeter Pressure
100% 30" Hg 1016 hPa
Current Rain
0.01